Time;durP1;ratioP1;P1;durP2;ratioP2;P2;SDS_P1;SDS_P2;PMS_P1;PMS_P2;Temp;Humidity;BMP_temperature;BMP_pressure;BME280_temperature;BME280_humidity;BME280_pressure;Samples;Min_cycle;Max_cycle;Signal;HPM_P1;HPM_P2
2022/10/17 00:01:11;;;;;;;9.43;7.87;;;13.20;99.90;;;;;;4917813;29;20792;-87
2022/10/17 00:03:39;;;;;;;10.73;7.30;;;13.20;99.90;;;;;;4916353;29;21034;-87
2022/10/17 00:06:09;;;;;;;9.77;7.07;;;13.20;99.90;;;;;;4916323;29;20455;-87
2022/10/17 00:08:40;;;;;;;8.53;7.20;;;13.20;99.90;;;;;;4917666;29;20826;-87
2022/10/17 00:11:12;;;;;;;9.13;7.10;;;13.20;99.90;;;;;;4917140;29;20456;-87
2022/10/17 00:13:41;;;;;;;8.67;7.27;;;13.20;99.90;;;;;;4917437;29;20472;-87
2022/10/17 00:16:10;;;;;;;9.20;7.77;;;13.30;99.90;;;;;;4915989;29;20444;-87
2022/10/17 00:18:38;;;;;;;8.07;7.37;;;13.30;99.90;;;;;;4915839;29;20479;-87
2022/10/17 00:21:06;;;;;;;8.07;7.20;;;13.30;99.90;;;;;;4916094;29;20463;-87
2022/10/17 00:23:35;;;;;;;8.07;7.37;;;13.30;99.90;;;;;;4915907;29;20456;-87
2022/10/17 00:26:06;;;;;;;9.20;7.57;;;13.30;99.90;;;;;;4917510;29;20507;-87
2022/10/17 00:28:34;;;;;;;9.33;8.40;;;13.30;99.90;;;;;;4917152;29;21025;-87
2022/10/17 00:31:04;;;;;;;8.80;6.83;;;13.30;99.90;;;;;;4916266;29;20892;-87
2022/10/17 00:33:33;;;;;;;9.00;8.10;;;13.30;99.90;;;;;;4916915;29;20483;-87
2022/10/17 00:36:06;;;;;;;9.30;7.90;;;13.30;99.90;;;;;;4916061;29;20452;-87
2022/10/17 00:38:36;;;;;;;9.80;8.90;;;13.30;99.90;;;;;;4916631;29;20973;-87
2022/10/17 00:41:06;;;;;;;8.90;7.80;;;13.30;99.90;;;;;;4919699;29;20451;-87
2022/10/17 00:43:50;;;;;;;9.00;7.70;;;13.30;99.90;;;;;;4919790;29;20535;-87
2022/10/17 00:46:19;;;;;;;8.30;7.50;;;13.30;99.90;;;;;;4919703;29;20948;-87
2022/10/17 00:48:49;;;;;;;8.63;7.50;;;13.30;99.90;;;;;;4919663;29;21000;-87
2022/10/17 00:51:20;;;;;;;9.07;7.23;;;13.20;99.90;;;;;;4920800;29;20925;-87
2022/10/17 00:53:50;;;;;;;8.50;7.70;;;13.20;99.90;;;;;;4920840;29;20464;-87
2022/10/17 00:56:21;;;;;;;9.10;7.50;;;13.20;99.90;;;;;;4919556;29;20474;-87
2022/10/17 00:58:49;;;;;;;8.40;7.17;;;13.20;99.90;;;;;;4919447;29;20479;-87
2022/10/17 01:01:17;;;;;;;8.30;7.50;;;13.20;99.90;;;;;;4919475;29;20811;-87
2022/10/17 01:03:46;;;;;;;8.40;7.60;;;13.20;99.90;;;;;;4919438;29;20982;-87
2022/10/17 01:06:14;;;;;;;9.90;8.80;;;13.10;99.90;;;;;;4919449;29;20455;-88
2022/10/17 01:08:42;;;;;;;12.30;8.40;;;13.10;99.90;;;;;;4919184;29;20488;-87
2022/10/17 01:11:29;;;;;;;8.90;7.70;;;13.10;99.90;;;;;;4919221;29;20459;-87
2022/10/17 01:14:02;;;;;;;8.00;7.20;;;13.10;99.90;;;;;;4920384;29;20500;-87
2022/10/17 01:16:39;;;;;;;7.77;7.07;;;13.10;99.90;;;;;;4919255;29;20455;-87
2022/10/17 01:19:31;;;;;;;8.60;6.80;;;13.10;99.90;;;;;;4919590;29;20468;-87
2022/10/17 01:22:02;;;;;;;8.33;7.50;;;13.10;99.90;;;;;;4918934;29;20462;-87
2022/10/17 01:24:48;;;;;;;7.70;7.00;;;13.10;99.90;;;;;;4919277;29;20441;-87
2022/10/17 01:27:42;;;;;;;9.00;8.20;;;13.10;99.90;;;;;;4918966;29;20966;-87
2022/10/17 01:30:42;;;;;;;8.47;7.67;;;13.10;99.90;;;;;;4918656;29;20870;-87
2022/10/17 01:33:17;;;;;;;11.20;8.03;;;13.10;99.90;;;;;;4918861;29;20449;-87
2022/10/17 01:35:52;;;;;;;8.27;7.37;;;13.10;99.90;;;;;;4918792;29;20468;-87
2022/10/17 01:38:24;;;;;;;9.30;7.70;;;13.10;99.90;;;;;;4918853;29;20505;-87
2022/10/17 01:41:00;;;;;;;9.23;7.27;;;13.20;99.90;;;;;;4918741;29;20547;-87
2022/10/17 01:43:37;;;;;;;9.40;7.37;;;13.20;99.90;;;;;;4918765;29;20444;-87
2022/10/17 01:46:13;;;;;;;9.10;8.30;;;13.20;99.90;;;;;;4918606;29;20456;-87
2022/10/17 01:48:45;;;;;;;8.23;7.53;;;13.20;99.90;;;;;;4919086;29;20566;-87
2022/10/17 01:51:17;;;;;;;9.07;8.17;;;13.20;99.90;;;;;;4918120;29;20453;-87
2022/10/17 01:53:52;;;;;;;9.37;8.40;;;13.20;99.90;;;;;;4923930;29;20516;-87
2022/10/17 01:56:24;;;;;;;8.93;8.03;;;13.20;99.90;;;;;;4927038;29;20838;-87
2022/10/17 01:58:57;;;;;;;9.23;8.40;;;13.20;99.90;;;;;;4929021;29;20472;-87
2022/10/17 02:01:29;;;;;;;8.60;7.90;;;13.20;99.90;;;;;;4931060;29;20429;-87
2022/10/17 02:04:01;;;;;;;9.13;8.33;;;13.20;99.90;;;;;;4930299;29;20459;-87
2022/10/17 02:06:33;;;;;;;8.73;7.97;;;13.20;99.90;;;;;;4929165;29;20455;-87
2022/10/17 02:09:15;;;;;;;9.23;8.33;;;13.20;99.90;;;;;;4936214;29;20472;-87
2022/10/17 02:11:50;;;;;;;9.30;8.40;;;13.20;99.90;;;;;;4930428;29;20543;-87
2022/10/17 02:14:28;;;;;;;9.00;8.17;;;13.20;99.90;;;;;;4922085;29;20472;-87
2022/10/17 02:17:07;;;;;;;8.83;7.93;;;13.20;99.90;;;;;;4926641;29;20542;-88
2022/10/17 02:19:46;;;;;;;9.17;8.27;;;13.20;99.90;;;;;;4924832;29;20476;-88
2022/10/17 02:22:25;;;;;;;9.13;8.40;;;13.20;99.90;;;;;;4921255;29;20444;-87
2022/10/17 02:25:00;;;;;;;9.73;8.20;;;13.20;99.90;;;;;;4919410;29;20456;-87
2022/10/17 02:27:36;;;;;;;8.60;7.77;;;13.20;99.90;;;;;;4918671;29;20540;-88
2022/10/17 02:30:12;;;;;;;8.90;8.10;;;13.20;99.90;;;;;;4917985;29;21002;-88
2022/10/17 02:32:45;;;;;;;8.67;7.87;;;13.20;99.90;;;;;;4918067;29;20491;-87
2022/10/17 02:35:22;;;;;;;8.73;7.00;;;13.20;99.90;;;;;;4917948;29;20492;-87
2022/10/17 02:37:52;;;;;;;8.43;7.53;;;13.10;99.90;;;;;;4917631;29;20567;-88
2022/10/17 02:40:24;;;;;;;8.83;8.07;;;13.10;99.90;;;;;;4917841;29;20445;-88
2022/10/17 02:42:54;;;;;;;8.40;7.60;;;13.10;99.90;;;;;;4917845;29;20550;-88
2022/10/17 02:45:26;;;;;;;8.87;8.17;;;13.10;99.90;;;;;;4918737;29;20524;-88
2022/10/17 02:48:00;;;;;;;9.17;8.27;;;13.10;99.90;;;;;;4917386;29;20468;-88
2022/10/17 02:50:38;;;;;;;9.67;8.90;;;13.10;99.90;;;;;;4917714;29;20535;-88
2022/10/17 02:53:12;;;;;;;11.83;9.40;;;13.10;99.90;;;;;;4917487;29;20479;-87
2022/10/17 02:55:45;;;;;;;9.53;8.73;;;13.00;99.90;;;;;;4917330;29;20475;-87
2022/10/17 02:58:19;;;;;;;9.80;8.87;;;13.00;99.90;;;;;;4917228;29;20476;-88
2022/10/17 03:00:48;;;;;;;9.60;8.70;;;13.00;99.90;;;;;;4917220;29;20954;-88
2022/10/17 03:03:24;;;;;;;8.70;7.80;;;13.00;99.90;;;;;;4917474;29;20889;-88
2022/10/17 03:05:53;;;;;;;8.90;8.30;;;13.00;99.90;;;;;;4917283;29;20455;-88
2022/10/17 03:08:24;;;;;;;9.23;8.53;;;13.00;99.90;;;;;;4917353;29;20475;-87
2022/10/17 03:10:53;;;;;;;8.50;7.80;;;13.00;99.90;;;;;;4917293;29;20474;-87
2022/10/17 03:13:22;;;;;;;10.37;9.37;;;13.00;99.90;;;;;;4917086;29;20459;-87
2022/10/17 03:15:50;;;;;;;11.40;10.40;;;13.00;99.90;;;;;;4917166;29;20476;-87
2022/10/17 03:18:19;;;;;;;11.70;10.80;;;12.90;99.90;;;;;;4917104;29;20472;-87
2022/10/17 03:20:51;;;;;;;14.27;11.57;;;12.90;99.90;;;;;;4917348;29;20520;-87
2022/10/17 03:23:20;;;;;;;12.30;11.20;;;12.90;99.90;;;;;;4916954;29;20981;-87
2022/10/17 03:25:48;;;;;;;10.70;9.80;;;12.90;99.90;;;;;;4918236;29;20479;-87
2022/10/17 03:28:16;;;;;;;10.30;9.50;;;12.90;99.90;;;;;;4916618;29;20476;-87
2022/10/17 03:30:45;;;;;;;12.67;11.57;;;12.90;99.90;;;;;;4916536;29;20930;-87
2022/10/17 03:33:14;;;;;;;10.37;9.47;;;12.90;99.90;;;;;;4916530;29;20467;-87
2022/10/17 03:35:42;;;;;;;10.57;9.57;;;12.80;99.90;;;;;;4916433;29;20936;-88
2022/10/17 03:38:12;;;;;;;10.30;9.50;;;12.80;99.90;;;;;;4917074;29;20889;-88
2022/10/17 03:40:40;;;;;;;10.80;9.23;;;12.80;99.90;;;;;;4916602;29;20991;-88
2022/10/17 03:43:10;;;;;;;9.77;8.87;;;12.80;99.90;;;;;;4916772;29;20452;-87
2022/10/17 03:45:40;;;;;;;10.07;9.17;;;12.80;99.90;;;;;;4916993;29;20456;-87
2022/10/17 03:48:08;;;;;;;9.80;8.90;;;12.80;99.90;;;;;;4916984;29;20475;-87
2022/10/17 03:50:37;;;;;;;10.27;9.47;;;12.80;99.90;;;;;;4917059;29;20456;-87
2022/10/17 03:53:05;;;;;;;10.40;9.10;;;12.80;99.90;;;;;;4916620;29;20548;-87
2022/10/17 03:55:35;;;;;;;10.30;9.20;;;12.70;99.90;;;;;;4916857;29;20849;-87
2022/10/17 03:58:04;;;;;;;10.40;9.40;;;12.70;99.90;;;;;;4917903;29;20480;-87
2022/10/17 04:00:32;;;;;;;10.20;9.20;;;12.70;99.90;;;;;;4916637;29;20831;-88
2022/10/17 04:03:01;;;;;;;10.10;9.03;;;12.70;99.90;;;;;;4916473;29;20460;-87
2022/10/17 04:05:29;;;;;;;9.97;8.97;;;12.70;99.90;;;;;;4916583;29;20464;-88
2022/10/17 04:07:57;;;;;;;9.87;9.00;;;12.70;99.90;;;;;;4916366;29;20491;-88
2022/10/17 04:10:52;;;;;;;10.93;9.97;;;12.70;99.90;;;;;;4917711;29;20464;-88
2022/10/17 04:13:20;;;;;;;10.77;9.97;;;12.80;99.90;;;;;;4930562;29;20416;-90
2022/10/17 04:15:55;;;;;;;10.00;9.00;;;12.70;99.90;;;;;;4943997;29;20539;-89
2022/10/17 04:18:23;;;;;;;10.73;9.60;;;12.70;99.90;;;;;;4933724;29;20554;-88
2022/10/17 04:20:52;;;;;;;10.30;9.50;;;12.70;99.90;;;;;;4931395;29;20460;-88
2022/10/17 04:23:22;;;;;;;9.30;8.60;;;12.70;99.90;;;;;;4930275;29;20527;-88
2022/10/17 04:25:57;;;;;;;10.57;9.77;;;12.70;99.90;;;;;;4926961;29;20547;-88
2022/10/17 04:28:27;;;;;;;10.33;9.43;;;12.70;99.90;;;;;;4930276;29;20500;-88
2022/10/17 04:30:59;;;;;;;11.07;10.17;;;12.60;99.90;;;;;;4929126;29;20534;-87
2022/10/17 04:33:34;;;;;;;10.30;9.27;;;12.60;99.90;;;;;;4930270;29;20455;-88
2022/10/17 04:36:05;;;;;;;10.13;9.23;;;12.60;99.90;;;;;;4931466;29;20472;-88
2022/10/17 04:38:37;;;;;;;10.13;9.23;;;12.60;99.90;;;;;;4930393;29;20508;-88
2022/10/17 04:41:08;;;;;;;10.70;9.80;;;12.60;99.90;;;;;;4929589;29;21025;-88
2022/10/17 04:43:38;;;;;;;9.70;8.90;;;12.60;99.90;;;;;;4929887;29;20440;-88
2022/10/17 04:46:09;;;;;;;9.87;9.07;;;12.70;99.90;;;;;;4930082;29;20499;-86
2022/10/17 04:48:38;;;;;;;10.20;9.20;;;12.60;99.90;;;;;;4929409;29;20467;-86
2022/10/17 04:51:10;;;;;;;10.03;9.30;;;12.60;99.90;;;;;;4930229;29;20495;-86
2022/10/17 04:53:47;;;;;;;15.27;13.60;;;12.60;99.90;;;;;;4929547;29;20476;-87
2022/10/17 04:56:19;;;;;;;12.30;11.30;;;12.60;99.90;;;;;;4929683;29;20475;-87
2022/10/17 04:58:50;;;;;;;11.23;10.33;;;12.60;99.90;;;;;;4928353;29;20476;-87
2022/10/17 05:01:20;;;;;;;11.87;10.77;;;12.60;99.90;;;;;;4925207;29;20527;-86
2022/10/17 05:03:52;;;;;;;12.37;11.30;;;12.60;99.90;;;;;;4931140;29;20464;-86
2022/10/17 05:06:23;;;;;;;11.97;10.93;;;12.60;99.90;;;;;;4935435;29;20472;-86
2022/10/17 05:09:10;;;;;;;10.80;9.90;;;12.60;99.90;;;;;;4935044;29;20456;-86
2022/10/17 05:11:42;;;;;;;10.50;9.70;;;12.60;99.90;;;;;;4933823;29;20467;-86
2022/10/17 05:14:11;;;;;;;10.80;9.80;;;12.60;99.90;;;;;;4933214;29;20500;-86
2022/10/17 05:16:39;;;;;;;10.27;9.40;;;12.60;99.90;;;;;;4934011;29;20492;-87
2022/10/17 05:19:08;;;;;;;11.40;10.40;;;12.60;99.90;;;;;;4927376;29;20487;-87
2022/10/17 05:21:42;;;;;;;11.00;10.10;;;12.60;99.90;;;;;;4925528;29;20506;-86
2022/10/17 05:24:13;;;;;;;10.87;10.00;;;12.50;99.90;;;;;;4921577;29;20456;-86
2022/10/17 05:26:43;;;;;;;10.67;9.60;;;12.60;99.90;;;;;;4921239;29;20452;-85
2022/10/17 05:29:12;;;;;;;10.40;9.40;;;12.50;99.90;;;;;;4934549;29;20484;-86
2022/10/17 05:31:45;;;;;;;10.70;9.60;;;12.50;99.90;;;;;;4924639;29;20496;-85
2022/10/17 05:34:14;;;;;;;11.00;10.00;;;12.50;99.90;;;;;;4925094;29;20452;-85
2022/10/17 05:36:42;;;;;;;13.50;12.20;;;12.50;99.90;;;;;;4919534;29;20483;-86
2022/10/17 05:39:13;;;;;;;12.07;10.97;;;12.50;99.90;;;;;;4919243;29;20473;-86
2022/10/17 05:41:43;;;;;;;11.60;9.80;;;12.60;99.90;;;;;;4919519;29;20784;-86
2022/10/17 05:44:12;;;;;;;10.70;9.60;;;12.50;99.90;;;;;;4918875;29;20452;-86
2022/10/17 05:46:45;;;;;;;10.70;9.80;;;12.50;99.90;;;;;;4918807;29;20440;-86
2022/10/17 05:49:13;;;;;;;11.27;10.27;;;12.50;99.90;;;;;;4918796;29;20476;-86
2022/10/17 05:51:59;;;;;;;11.27;10.37;;;12.50;99.90;;;;;;4919276;29;20456;-86
2022/10/17 05:54:31;;;;;;;10.60;9.80;;;12.50;99.90;;;;;;4921764;29;20437;-86
2022/10/17 05:57:01;;;;;;;10.73;9.80;;;12.50;99.90;;;;;;4922324;29;20481;-86
2022/10/17 05:59:32;;;;;;;10.40;9.50;;;12.50;99.90;;;;;;4921356;29;20480;-86
2022/10/17 06:02:06;;;;;;;11.10;10.10;;;12.50;99.90;;;;;;4921479;29;20868;-86
2022/10/17 06:04:35;;;;;;;10.90;9.90;;;12.50;99.90;;;;;;4927521;29;20452;-86
2022/10/17 06:07:03;;;;;;;11.07;10.20;;;12.50;99.90;;;;;;4931785;29;20456;-86
2022/10/17 06:09:33;;;;;;;11.07;10.20;;;12.50;99.90;;;;;;4931992;29;20808;-86
2022/10/17 06:12:04;;;;;;;12.80;11.60;;;12.50;99.90;;;;;;4929411;29;20487;-86
2022/10/17 06:14:32;;;;;;;12.23;10.43;;;12.50;99.90;;;;;;4929257;29;20455;-86
2022/10/17 06:17:03;;;;;;;11.17;10.17;;;12.50;99.90;;;;;;4933993;29;20488;-86
2022/10/17 06:19:31;;;;;;;11.90;11.00;;;12.60;99.90;;;;;;4931908;29;20553;-86
2022/10/17 06:21:59;;;;;;;12.00;11.00;;;12.60;99.90;;;;;;4931914;29;20464;-86
2022/10/17 06:24:29;;;;;;;11.57;10.57;;;12.60;99.90;;;;;;4932711;29;20480;-86
2022/10/17 06:27:03;;;;;;;12.10;10.83;;;12.60;99.90;;;;;;4929455;29;20512;-86
2022/10/17 06:29:39;;;;;;;13.47;12.33;;;12.60;99.90;;;;;;4929807;29;20470;-85
2022/10/17 06:32:08;;;;;;;12.80;11.80;;;12.70;99.90;;;;;;4923753;29;20531;-85
2022/10/17 06:34:46;;;;;;;14.00;12.50;;;12.70;99.90;;;;;;4918851;29;20444;-85
2022/10/17 06:37:15;;;;;;;12.20;11.10;;;12.70;99.90;;;;;;4918006;29;21016;-86
2022/10/17 06:39:45;;;;;;;13.77;12.67;;;12.80;99.90;;;;;;4918454;29;20445;-85
2022/10/17 06:42:20;;;;;;;17.80;16.17;;;12.80;99.90;;;;;;4918203;29;20464;-85
2022/10/17 06:45:10;;;;;;;14.60;13.30;;;12.90;99.90;;;;;;4927910;29;20456;-85
2022/10/17 06:47:45;;;;;;;13.70;12.40;;;12.90;99.90;;;;;;4918189;29;20524;-85
2022/10/17 06:50:40;;;;;;;16.53;12.43;;;12.90;99.90;;;;;;4923557;29;20448;-86
2022/10/17 06:53:16;;;;;;;20.23;11.67;;;13.00;99.90;;;;;;4917379;29;20456;-85
2022/10/17 06:56:10;;;;;;;14.50;13.20;;;13.00;99.90;;;;;;4917727;29;20535;-86
2022/10/17 06:58:50;;;;;;;17.53;15.87;;;13.10;99.90;;;;;;4917501;29;20835;-85
2022/10/17 07:01:28;;;;;;;12.47;11.17;;;13.20;99.90;;;;;;4919138;29;20970;-85
2022/10/17 07:04:01;;;;;;;12.50;11.20;;;13.20;99.90;;;;;;4918616;29;20480;-85
2022/10/17 07:06:31;;;;;;;12.77;11.67;;;13.30;99.90;;;;;;4918138;29;20452;-86
2022/10/17 07:09:06;;;;;;;11.90;10.90;;;13.40;99.90;;;;;;4917263;29;20472;-86
2022/10/17 07:11:36;;;;;;;11.30;10.30;;;13.40;99.90;;;;;;4917419;29;20445;-85
2022/10/17 07:14:06;;;;;;;11.83;10.83;;;13.50;99.90;;;;;;4917215;29;20981;-86
2022/10/17 07:16:35;;;;;;;16.93;15.33;;;13.50;99.90;;;;;;4917127;29;20508;-86
2022/10/17 07:19:19;;;;;;;11.60;10.60;;;13.60;99.90;;;;;;4917413;29;20500;-86
2022/10/17 07:21:47;;;;;;;12.30;11.10;;;13.70;99.90;;;;;;4917295;29;20512;-87
2022/10/17 07:24:16;;;;;;;11.60;10.50;;;13.80;99.90;;;;;;4917062;29;20453;-87
2022/10/17 07:26:53;;;;;;;15.90;10.87;;;13.80;99.90;;;;;;4917249;29;20448;-86
2022/10/17 07:29:22;;;;;;;14.13;11.47;;;13.90;99.90;;;;;;4916608;29;20490;-86
2022/10/17 07:32:05;;;;;;;12.47;11.30;;;14.00;99.90;;;;;;4916750;29;20455;-86
2022/10/17 07:34:34;;;;;;;13.43;11.50;;;14.10;99.90;;;;;;4916913;29;20884;-86
2022/10/17 07:37:02;;;;;;;23.90;21.33;;;14.10;99.90;;;;;;4917093;29;20887;-86
2022/10/17 07:39:31;;;;;;;12.90;11.80;;;14.20;99.90;;;;;;4917006;29;20476;-86
2022/10/17 07:41:59;;;;;;;12.77;11.57;;;14.30;99.90;;;;;;4916786;29;21077;-86
2022/10/17 07:44:28;;;;;;;16.13;10.30;;;14.40;99.90;;;;;;4916794;29;20996;-86
2022/10/17 07:46:57;;;;;;;10.73;9.53;;;14.40;99.90;;;;;;4916794;29;21021;-86
2022/10/17 07:49:25;;;;;;;16.67;11.07;;;14.50;99.90;;;;;;4916539;29;20570;-86
2022/10/17 07:51:53;;;;;;;23.10;11.80;;;14.50;99.90;;;;;;4916436;29;20453;-86
2022/10/17 07:54:22;;;;;;;10.80;9.43;;;14.60;99.90;;;;;;4917666;29;20444;-86
2022/10/17 07:56:50;;;;;;;18.40;12.47;;;14.70;99.90;;;;;;4917567;29;20466;-86
2022/10/17 07:59:18;;;;;;;12.67;10.50;;;14.70;99.90;;;;;;4916384;29;20831;-86
2022/10/17 08:01:49;;;;;;;10.67;9.57;;;14.70;99.90;;;;;;4916578;29;20971;-86
2022/10/17 08:04:17;;;;;;;12.47;10.50;;;14.80;99.90;;;;;;4917084;29;20821;-86
2022/10/17 08:06:45;;;;;;;11.77;10.57;;;14.90;99.90;;;;;;4918234;29;20444;-86
2022/10/17 08:09:13;;;;;;;16.07;11.13;;;14.90;99.90;;;;;;4918677;29;20471;-86
2022/10/17 08:11:42;;;;;;;10.57;9.50;;;15.00;99.90;;;;;;4918697;29;20503;-86
2022/10/17 08:14:12;;;;;;;11.13;9.97;;;15.10;99.90;;;;;;4918717;29;20504;-86
2022/10/17 08:16:40;;;;;;;11.50;9.33;;;15.20;99.90;;;;;;4920116;29;20958;-86
2022/10/17 08:19:11;;;;;;;11.33;9.03;;;15.20;99.90;;;;;;4917735;29;21073;-86
2022/10/17 08:21:40;;;;;;;10.23;9.23;;;15.30;99.90;;;;;;4919331;29;20512;-86
2022/10/17 08:24:09;;;;;;;9.80;8.90;;;15.40;99.90;;;;;;4922032;29;20458;-86
2022/10/17 08:26:37;;;;;;;8.73;8.00;;;15.60;99.90;;;;;;4920133;29;20526;-86
2022/10/17 08:29:14;;;;;;;8.07;7.37;;;15.70;99.90;;;;;;4919944;29;20465;-86
2022/10/17 08:31:46;;;;;;;8.53;7.73;;;15.70;99.90;;;;;;4920724;29;20432;-86
2022/10/17 08:34:26;;;;;;;9.43;8.50;;;15.80;99.90;;;;;;4919566;29;20456;-86
2022/10/17 08:36:54;;;;;;;8.57;7.80;;;16.00;99.90;;;;;;4917865;29;20466;-86
2022/10/17 08:39:23;;;;;;;8.90;8.03;;;16.10;99.90;;;;;;4916999;29;20488;-86
2022/10/17 08:42:04;;;;;;;8.30;6.90;;;16.20;99.90;;;;;;4918249;29;20440;-86
2022/10/17 08:44:43;;;;;;;11.47;10.37;;;16.30;99.90;;;;;;4917317;29;20546;-86
2022/10/17 08:47:16;;;;;;;9.17;8.23;;;16.30;99.90;;;;;;4918188;29;20491;-86
2022/10/17 08:49:51;;;;;;;9.07;8.17;;;16.40;99.90;;;;;;4916436;29;20495;-86
2022/10/17 08:52:28;;;;;;;13.73;10.37;;;16.50;99.90;;;;;;4917445;29;20487;-87
2022/10/17 08:54:59;;;;;;;9.23;7.60;;;16.60;99.90;;;;;;4917017;29;20483;-87
2022/10/17 08:57:28;;;;;;;8.03;7.20;;;16.70;99.90;;;;;;4917832;29;20437;-86
2022/10/17 08:59:57;;;;;;;7.93;7.23;;;16.80;99.90;;;;;;4917344;29;20463;-87
2022/10/17 09:02:43;;;;;;;7.80;6.73;;;16.90;99.90;;;;;;4920293;29;20489;-87
2022/10/17 09:05:35;;;;;;;7.67;6.50;;;17.00;99.90;;;;;;4920269;29;20419;-87
2022/10/17 09:08:13;;;;;;;7.33;6.63;;;17.10;99.90;;;;;;4920067;29;20455;-87
2022/10/17 09:10:52;;;;;;;6.40;5.80;;;17.20;99.90;;;;;;4920860;29;20483;-87
2022/10/17 09:13:42;;;;;;;7.60;6.90;;;17.30;99.90;;;;;;4919607;29;20434;-87
2022/10/17 09:16:36;;;;;;;8.10;6.60;;;17.30;99.90;;;;;;4920549;29;20893;-87
2022/10/17 09:19:11;;;;;;;7.03;6.23;;;17.40;99.90;;;;;;4919433;29;20454;-86
2022/10/17 09:21:50;;;;;;;7.57;6.80;;;17.50;99.90;;;;;;4919601;29;20509;-86
2022/10/17 09:24:25;;;;;;;7.67;6.97;;;17.50;99.90;;;;;;4919368;29;20507;-86
2022/10/17 09:26:55;;;;;;;7.43;6.67;;;17.60;99.90;;;;;;4920544;29;20900;-86
2022/10/17 09:29:26;;;;;;;8.63;6.37;;;17.70;99.90;;;;;;4919085;29;20471;-86
2022/10/17 09:32:04;;;;;;;6.87;6.13;;;17.80;99.90;;;;;;4919278;29;20427;-86
2022/10/17 09:34:33;;;;;;;7.50;6.50;;;17.80;99.90;;;;;;4919896;29;20423;-86
2022/10/17 09:37:03;;;;;;;7.20;6.50;;;17.90;99.90;;;;;;4919123;29;20534;-86
2022/10/17 09:39:31;;;;;;;9.70;6.30;;;17.90;99.90;;;;;;4920028;29;20480;-86
2022/10/17 09:42:01;;;;;;;10.03;7.70;;;18.00;99.90;;;;;;4918975;29;20452;-86
2022/10/17 09:44:32;;;;;;;10.00;6.73;;;18.10;99.90;;;;;;4919097;29;20439;-87
2022/10/17 09:47:16;;;;;;;7.60;6.20;;;18.20;99.90;;;;;;4919934;29;20448;-87
2022/10/17 09:49:46;;;;;;;7.10;6.40;;;18.20;99.90;;;;;;4918932;29;20812;-87
2022/10/17 09:52:18;;;;;;;9.83;6.27;;;18.30;99.90;;;;;;4918970;29;20459;-87
2022/10/17 09:54:49;;;;;;;7.77;6.67;;;18.40;99.90;;;;;;4918750;29;20457;-86
2022/10/17 09:57:19;;;;;;;6.77;6.00;;;18.50;99.90;;;;;;4918463;29;20435;-86
2022/10/17 09:59:55;;;;;;;8.03;6.70;;;18.50;99.90;;;;;;4918820;29;20876;-86
2022/10/17 10:02:25;;;;;;;6.93;5.80;;;18.60;99.90;;;;;;4920130;29;20515;-86
2022/10/17 10:05:00;;;;;;;7.00;5.93;;;18.60;99.90;;;;;;4920882;29;20447;-86
2022/10/17 10:07:37;;;;;;;7.90;7.10;;;18.60;99.90;;;;;;4919470;29;20456;-86
2022/10/17 10:10:08;;;;;;;9.03;7.10;;;18.70;99.90;;;;;;4918678;29;20441;-86
2022/10/17 10:12:39;;;;;;;7.23;6.47;;;18.70;99.90;;;;;;4918858;29;20540;-86
2022/10/17 10:15:33;;;;;;;7.13;6.20;;;18.70;99.90;;;;;;4920196;29;20524;-87
2022/10/17 10:18:05;;;;;;;7.23;6.60;;;18.70;99.90;;;;;;4915785;29;20488;-86
2022/10/17 10:20:36;;;;;;;7.40;6.67;;;18.80;99.90;;;;;;4919433;29;20416;-86
2022/10/17 10:23:14;;;;;;;7.20;6.50;;;18.80;99.90;;;;;;4918602;29;20424;-86
2022/10/17 10:25:56;;;;;;;6.60;6.00;;;18.90;99.90;;;;;;4918110;29;20488;-86
2022/10/17 10:28:28;;;;;;;9.70;6.20;;;18.90;99.90;;;;;;4919328;29;20460;-86
2022/10/17 10:31:01;;;;;;;6.60;6.00;;;19.00;99.90;;;;;;4919610;29;20539;-86
2022/10/17 10:33:31;;;;;;;6.97;6.27;;;19.00;99.90;;;;;;4920421;29;20445;-86
2022/10/17 10:36:02;;;;;;;8.10;6.10;;;19.10;99.90;;;;;;4921390;29;20456;-86
2022/10/17 10:38:34;;;;;;;7.10;6.50;;;19.20;99.90;;;;;;4925802;29;20561;-86
2022/10/17 10:41:04;;;;;;;9.20;7.10;;;19.20;99.90;;;;;;4928536;29;20427;-86
2022/10/17 10:43:36;;;;;;;8.70;6.37;;;19.20;99.90;;;;;;4929842;29;20479;-86
2022/10/17 10:46:16;;;;;;;6.90;6.23;;;19.20;99.90;;;;;;4919466;29;20504;-86
2022/10/17 10:48:51;;;;;;;7.90;7.10;;;19.20;99.90;;;;;;4921105;29;20475;-86
2022/10/17 10:51:27;;;;;;;8.93;6.40;;;19.30;99.90;;;;;;4931975;29;20475;-85
2022/10/17 10:54:10;;;;;;;7.60;6.13;;;19.30;99.90;;;;;;4937240;29;20455;-85
2022/10/17 10:56:42;;;;;;;7.13;6.33;;;19.20;99.90;;;;;;4932227;29;20494;-85
2022/10/17 10:59:17;;;;;;;8.70;6.60;;;19.20;99.90;;;;;;4918739;29;20548;-86
2022/10/17 11:01:52;;;;;;;7.30;6.60;;;19.30;99.90;;;;;;4919525;29;20436;-85
2022/10/17 11:04:34;;;;;;;7.00;6.30;;;19.30;99.90;;;;;;4919474;29;20444;-86
2022/10/17 11:07:08;;;;;;;10.47;7.53;;;19.30;99.90;;;;;;4918233;29;20895;-85
2022/10/17 11:09:53;;;;;;;7.37;6.63;;;19.20;99.90;;;;;;4918859;29;20464;-85
2022/10/17 11:12:26;;;;;;;7.30;6.60;;;19.20;99.90;;;;;;4918676;29;20444;-85
2022/10/17 11:15:03;;;;;;;9.37;7.00;;;19.20;99.90;;;;;;4917412;29;20495;-85
2022/10/17 11:17:38;;;;;;;9.80;6.83;;;19.20;99.90;;;;;;4917400;29;20457;-86
2022/10/17 11:20:15;;;;;;;7.40;6.63;;;19.20;99.90;;;;;;4917231;29;20486;-86
2022/10/17 11:22:46;;;;;;;8.27;6.77;;;19.20;99.90;;;;;;4917079;29;20476;-85
2022/10/17 11:25:28;;;;;;;11.47;7.40;;;19.10;99.90;;;;;;4918385;29;20411;-86
2022/10/17 11:27:56;;;;;;;8.67;7.30;;;19.10;99.90;;;;;;4916934;29;20512;-86
2022/10/17 11:30:47;;;;;;;12.17;8.43;;;19.10;99.90;;;;;;4918185;29;20456;-86
2022/10/17 11:33:25;;;;;;;9.07;8.17;;;19.10;99.90;;;;;;4917014;29;20455;-86
2022/10/17 11:35:59;;;;;;;11.90;9.40;;;19.10;99.90;;;;;;4917159;29;20832;-86
2022/10/17 11:38:38;;;;;;;15.53;10.70;;;19.10;99.90;;;;;;4918835;29;20463;-86
2022/10/17 11:41:11;;;;;;;11.27;10.10;;;19.10;99.90;;;;;;4916845;29;20500;-86
2022/10/17 11:43:46;;;;;;;10.03;8.80;;;19.00;99.90;;;;;;4916888;29;20818;-86
2022/10/17 11:46:19;;;;;;;13.23;9.60;;;19.10;99.90;;;;;;4917145;29;20454;-86
2022/10/17 11:49:07;;;;;;;10.90;9.23;;;19.00;99.90;;;;;;4917308;29;20825;-86
2022/10/17 11:51:43;;;;;;;11.27;10.23;;;19.00;99.90;;;;;;4917001;29;20544;-86
2022/10/17 11:54:35;;;;;;;10.37;9.37;;;19.00;99.90;;;;;;4917047;29;20813;-86
2022/10/17 11:57:18;;;;;;;10.90;9.80;;;18.90;99.90;;;;;;4918046;29;20432;-86
2022/10/17 12:00:01;;;;;;;13.43;10.57;;;18.90;99.90;;;;;;4916752;29;20496;-86
2022/10/17 12:02:36;;;;;;;14.00;11.33;;;18.90;99.90;;;;;;4917918;29;20473;-84
2022/10/17 12:05:16;;;;;;;12.93;11.70;;;18.80;99.90;;;;;;4917779;29;20472;-84
2022/10/17 12:07:52;;;;;;;14.03;12.80;;;18.80;99.90;;;;;;4916967;29;20472;-84
2022/10/17 12:10:34;;;;;;;13.37;11.97;;;18.70;99.90;;;;;;4916966;29;20452;-84
2022/10/17 12:13:35;;;;;;;13.67;12.27;;;18.60;99.90;;;;;;4916906;29;20512;-84
2022/10/17 12:16:39;;;;;;;14.97;13.57;;;18.60;99.90;;;;;;4918398;29;20428;-84
2022/10/17 12:19:29;;;;;;;16.83;13.00;;;18.60;99.90;;;;;;4917838;29;20442;-85
2022/10/17 12:22:19;;;;;;;12.73;11.47;;;18.50;99.90;;;;;;4916460;29;20452;-85
2022/10/17 12:25:01;;;;;;;12.60;11.50;;;18.50;99.90;;;;;;4916391;29;20966;-85
2022/10/17 12:27:41;;;;;;;12.67;11.67;;;18.50;99.90;;;;;;4917943;29;20942;-85
2022/10/17 12:30:21;;;;;;;12.50;11.30;;;18.50;99.90;;;;;;4917551;29;20836;-85
2022/10/17 12:33:01;;;;;;;14.40;13.00;;;18.50;99.90;;;;;;4916464;29;20462;-85
2022/10/17 12:35:36;;;;;;;15.73;14.33;;;18.50;99.90;;;;;;4917853;29;20452;-85
2022/10/17 12:38:28;;;;;;;15.33;13.73;;;18.40;99.90;;;;;;4921118;29;20985;-86
2022/10/17 12:41:05;;;;;;;13.30;12.00;;;18.40;99.90;;;;;;4920656;29;20442;-86
2022/10/17 12:43:52;;;;;;;15.63;14.33;;;18.40;99.90;;;;;;4920189;29;20932;-86
2022/10/17 12:46:57;;;;;;;15.43;13.23;;;18.40;99.90;;;;;;4920082;29;20448;-87
2022/10/17 12:49:44;;;;;;;14.90;13.23;;;18.40;99.90;;;;;;4920088;29;20452;-87
2022/10/17 12:52:22;;;;;;;14.07;12.87;;;18.40;99.90;;;;;;4920335;29;20447;-87
2022/10/17 12:55:11;;;;;;;14.33;13.03;;;18.40;99.90;;;;;;4921201;29;20444;-87
2022/10/17 12:57:48;;;;;;;15.40;13.77;;;18.40;99.90;;;;;;4920397;29;20454;-87
2022/10/17 13:00:21;;;;;;;19.73;17.83;;;18.40;99.90;;;;;;4921269;29;20491;-87
2022/10/17 13:02:54;;;;;;;14.97;13.47;;;18.30;99.90;;;;;;4920182;29;20452;-87
2022/10/17 13:05:28;;;;;;;15.30;13.90;;;18.40;99.90;;;;;;4919835;29;20423;-87
2022/10/17 13:07:59;;;;;;;14.30;12.90;;;18.30;99.90;;;;;;4920862;29;20463;-87
2022/10/17 13:10:29;;;;;;;18.23;15.27;;;18.30;99.90;;;;;;4919319;29;20452;-87
2022/10/17 13:13:08;;;;;;;27.47;15.13;;;18.30;99.90;;;;;;4919800;29;20521;-86